Friday, October 19, 2018, 1:16 AM EDT
Back to Local

KFZY, Fulton Oswego County Airport

Location: Fulton, NY, United States Lat: 43.35
Local Time: 1:16 AM EDT ( 5:16 GMT) Lon: -76.383
Time Zone: US/Eastern Elev: 475 ft

Show me the last for .
Show Decoded

2018-10-19 00:54 METAR KFZY 190454Z AUTO 19005KT 10SM CLR 02/M02 A3024 RMK AO2 SLP244 T00171022
                 400610006 =
2018-10-18 23:54 METAR KFZY 190354Z AUTO 19006KT 10SM CLR 02/M02 A3025 RMK AO2 SLP248 T00171022 =
2018-10-18 22:54 METAR KFZY 190254Z AUTO 19006KT 10SM CLR 02/M03 A3027 RMK AO2 SLP255 T00221028
                 58014 =
2018-10-18 21:54 METAR KFZY 190154Z AUTO 19004KT 10SM CLR 02/M03 A3029 RMK AO2 SLP262 T00221033 =
2018-10-18 20:54 METAR KFZY 190054Z AUTO 20006KT 10SM FEW045 03/M03 A3030 RMK AO2 SLP266
                 T00331033 =
2018-10-18 19:54 METAR KFZY 182354Z AUTO 22006KT 10SM OVC043 05/M03 A3031 RMK AO2 SLP269
                 T00501033 10061 20044 58009 =
2018-10-18 18:54 METAR KFZY 182254Z AUTO 22003KT 10SM SCT029 OVC040 05/M01 A3034 RMK AO2 SLP278
                 T00501011 =
2018-10-18 18:25 METAR KFZY 182225Z AUTO 23005KT 10SM OVC029 05/M02 A3033 RMK AO2 T00501017 =
2018-10-18 17:54 METAR KFZY 182154Z AUTO 23004KT 10SM OVC031 05/M02 A3034 RMK AO2 SLP279
                 T00501022 =
2018-10-18 16:54 METAR KFZY 182054Z AUTO 27011G18KT 10SM OVC036 05/M03 A3035 RMK AO2 SLP280
                 T00501028 58013 =
2018-10-18 15:54 METAR KFZY 181954Z AUTO 28010G18KT 10SM BKN035 OVC042 05/M04 A3036 RMK AO2 PK
                 WND 27027/1919 SLP285 T00501039 =
2018-10-18 14:54 METAR KFZY 181854Z AUTO 29016G27KT 10SM OVC043 05/M06 A3038 RMK AO2 PK WND
                 31027/1848 SLP290 T00501056 =
2018-10-18 13:54 METAR KFZY 181754Z AUTO 29018G27KT 10SM SCT043 05/M06 A3039 RMK AO2 PK WND
                 30027/1750 SLP293 T00501061 10061 20011 58006 =
2018-10-18 12:54 METAR KFZY 181654Z AUTO 27015G23KT 10SM SCT047 06/M06 A3040 RMK AO2 SLP299
                 T00561061 =
2018-10-18 11:54 METAR KFZY 181554Z AUTO 29014G21KT 10SM FEW050 05/M08 A3041 RMK AO2 SLP302
                 T00501078 =
2018-10-18 10:54 METAR KFZY 181454Z AUTO 31016KT 10SM CLR 05/M09 A3040 RMK AO2 SLP299 T00501089
                 51010 =
2018-10-18 09:54 METAR KFZY 181354Z AUTO 32008G19KT 10SM CLR 04/M07 A3040 RMK AO2 SLP298
                 T00391067 =
2018-10-18 08:54 METAR KFZY 181254Z AUTO 33013G18KT 10SM CLR 03/M07 A3039 RMK AO2 SLP294
                 T00281072 =
2018-10-18 07:54 METAR KFZY 181154Z AUTO 31008KT 10SM CLR 01/M08 A3037 RMK AO2 SLP289 70006
                 T00111078 10039 20006 51029 =
2018-10-18 06:54 METAR KFZY 181054Z AUTO 33012KT 10SM CLR 01/M08 A3034 RMK AO2 SLP280 T00111078 =
2018-10-18 05:54 METAR KFZY 180954Z AUTO 31008KT 10SM FEW044 02/M07 A3032 RMK AO2 SLP270
                 T00171072 =
2018-10-18 04:54 METAR KFZY 180854Z AUTO 31008KT 10SM FEW080 02/M08 A3028 RMK AO2 SLP258
                 T00221083 52029 =
2018-10-18 03:54 METAR KFZY 180754Z AUTO 33013G17KT 10SM OVC085 03/M08 A3026 RMK AO2 SLP249
                 T00331083 =
2018-10-18 02:54 METAR KFZY 180654Z AUTO 32008G22KT 10SM OVC075 04/M09 A3022 RMK AO2 SLP238
                 T00391089 =
2018-10-18 01:54 METAR KFZY 180554Z AUTO 33014G21KT 10SM BKN075 OVC090 04/M09 A3020 RMK AO2 PK
                 WND 33027/0504 SLP228 60000 T00391094 10061 20039 53025 =

Support USWX by starting your Amazon purchase here.